Latest Weather Observations for Sunshine Coast Airport

IDQ60901

Issued at 3:01 pm EST Monday 23 September 2019 (issued every 10 minutes, with the page automatically refreshed every 10 minutes)

About weather observations | Map of Brisbane area stations | Latest observations for Brisbane area | Other Formats
Station Details ID: 040861 Name: SUNSHINE COAST AIRPORT Lat: -26.60 Lon: 153.09 Height: 3.42 m
Data from the previous 72 hours. | See also: Recent months at Sunshine Coast Airport
Date/Time
EST
Temp
°C
App
Temp
°C
Dew
Point
°C
Rel
Hum
%
Delta-T
°C
Wind Press
QNH
hPa
Press
MSL
hPa
Rain since
9am
mm
Dir  Spd
km/h
Gust
km/h
Spd
kts
Gust
kts
23/02:30pm 24.4 21.0 19.0 72 3.4 NNE 35 43 19 23 1018.9 1018.8 0.0
23/02:00pm 24.4 21.4 18.6 70 3.7 NNE 32 39 17 21 1019.3 1019.2 0.0
23/01:30pm 24.6 21.7 18.8 70 3.7 NE 32 35 17 19 1019.6 1019.5 0.0
23/01:00pm 24.4 21.4 18.6 70 3.7 NNE 32 39 17 21 1020.1 1020.0 0.0
23/12:30pm 24.4 21.8 18.6 70 3.7 NNE 30 35 16 19 1020.9 1020.8 0.0
23/12:00pm 25.0 23.3 18.9 69 3.9 NE 26 33 14 18 1021.3 1021.2 0.0
23/11:30am 24.6 22.7 18.5 69 3.9 NE 26 32 14 17 1022.0 1021.9 0.0
23/11:00am 26.5 25.6 14.9 49 7.0 NNW 13 26 7 14 1022.4 1022.3 0.0
23/10:30am 26.1 24.8 15.8 53 6.3 NNW 17 32 9 17 1022.9 1022.8 0.0
23/10:00am 24.4 22.6 16.1 60 5.0 NW 20 28 11 15 1023.6 1023.5 0.0
23/09:30am 24.5 22.5 15.4 57 5.5 NNW 20 33 11 18 1024.0 1023.9 0.0
23/09:00am 24.1 22.5 16.6 63 4.6 NW 20 30 11 16 1024.5 1024.4 0.2
23/08:30am 21.4 19.8 16.4 73 3.0 NW 20 26 11 14 1024.7 1024.6 0.2
23/08:00am 21.8 22.1 18.0 79 2.4 NNW 13 19 7 10 1024.7 1024.6 0.2
23/07:30am 20.2 20.7 18.3 89 1.2 NNW 13 17 7 9 1024.6 1024.5 0.2
23/07:00am 18.0 19.0 17.7 98 0.2 NNW 9 11 5 6 1024.7 1024.6 0.2
23/06:30am 17.4 18.1 17.1 98 0.2 NW 9 13 5 7 1024.5 1024.4 0.2
23/06:00am 16.6 16.2 16.1 97 0.3 NW 13 15 7 8 1024.2 1024.1 0.2
23/05:30am 15.7 15.3 15.1 96 0.3 NNW 11 13 6 7 1024.0 1023.9 0.2
23/05:00am 15.7 15.3 15.2 97 0.3 NW 11 13 6 7 1023.9 1023.8 0.2
23/04:30am 16.4 15.9 15.9 97 0.3 NNW 13 13 7 7 1023.7 1023.6 0.2
23/04:00am 15.2 14.1 14.4 95 0.5 NW 13 15 7 8 1023.4 1023.3 0.2
23/03:30am 15.5 14.9 14.7 95 0.5 NW 11 13 6 7 1023.3 1023.2 0.2
23/03:00am 16.2 15.6 15.6 96 0.3 NW 13 15 7 8 1023.4 1023.3 0.2
23/02:30am 15.6 14.6 14.6 94 0.6 NW 13 15 7 8 1023.6 1023.5 0.2
23/02:00am 15.8 15.2 14.7 93 0.6 NW 11 13 6 7 1023.7 1023.6 0.2
23/01:30am 16.3 15.5 15.2 93 0.6 NW 13 13 7 7 1023.9 1023.8 0.2
23/01:00am 16.4 16.0 15.3 93 0.6 NW 11 13 6 7 1024.1 1024.0 0.2
23/12:30am 16.9 16.5 16.1 95 0.5 NW 13 15 7 8 1024.5 1024.4 0.2
23/12:00am 16.4 15.8 15.6 95 0.5 NW 13 17 7 9 1024.5 1024.4 0.2
 
Date/Time
EST
Temp
°C
App
Temp
°C
Dew
Point
°C
Rel
Hum
%
Delta-T
°C
Wind Press
QNH
hPa
Press
MSL
hPa
Rain since
9am
mm
Dir  Spd
km/h
Gust
km/h
Spd
kts
Gust
kts
22/11:30pm 15.8 15.2 14.7 93 0.6 NW 11 13 6 7 1024.6 1024.5 0.2
22/11:00pm 16.2 15.8 15.1 93 0.6 NW 11 13 6 7 1024.4 1024.3 0.2
22/10:30pm 16.2 15.8 15.1 93 0.6 NW 11 11 6 6 1024.5 1024.4 0.2
22/10:00pm 16.3 15.8 14.8 91 0.9 NW 11 13 6 7 1024.5 1024.4 0.2
22/09:30pm 16.6 16.5 15.0 90 0.9 NW 9 11 5 6 1024.4 1024.3 0.2
22/09:00pm 17.1 17.1 15.1 88 1.2 NW 9 11 5 6 1024.5 1024.4 0.2
22/08:30pm 17.9 17.5 15.2 84 1.6 NNW 11 13 6 7 1024.6 1024.5 0.2
22/08:00pm 19.3 18.8 16.0 81 2.0 N 13 17 7 9 1024.6 1024.5 0.2
22/07:30pm 20.2 19.1 16.4 79 2.3 N 17 22 9 12 1024.4 1024.3 0.2
22/07:00pm 20.4 18.9 16.4 78 2.4 N 19 26 10 14 1024.1 1024.0 0.2
22/06:30pm 20.3 18.7 16.1 77 2.5 NNE 19 26 10 14 1023.9 1023.8 0.2
22/06:00pm 20.6 18.8 16.0 75 2.7 NNE 20 28 11 15 1023.7 1023.6 0.2
22/05:30pm 20.9 19.1 16.1 74 2.9 NNE 20 28 11 15 1023.5 1023.4 0.2
22/05:00pm 21.6 19.5 16.1 71 3.3 NNE 22 28 12 15 1023.3 1023.2 0.2
22/04:30pm 22.1 19.7 16.4 70 3.5 NE 24 28 13 15 1023.1 1023.0 0.2
22/04:00pm 22.7 20.3 16.3 67 3.9 NE 24 30 13 16 1022.8 1022.7 0.2
22/03:30pm 23.1 20.8 16.6 67 4.0 NE 24 32 13 17 1022.9 1022.8 0.2
22/03:00pm 23.7 21.4 16.7 65 4.3 NE 24 30 13 16 1023.0 1022.9 0.2
22/02:30pm 23.5 20.2 16.1 63 4.5 NE 28 32 15 17 1023.1 1023.0 0.2
22/02:00pm 24.4 21.8 16.9 63 4.6 NE 26 32 14 17 1023.2 1023.1 0.2
22/01:30pm 24.1 21.7 16.4 62 4.7 NE 24 28 13 15 1023.5 1023.4 0.2
22/01:00pm 24.2 21.5 16.5 62 4.7 NE 26 35 14 19 1023.8 1023.7 0.2
22/12:30pm 24.2 21.5 16.7 63 4.6 NE 26 30 14 16 1024.1 1024.0 0.2
22/12:00pm 24.3 22.1 16.8 63 4.6 NE 24 30 13 16 1024.5 1024.4 0.2
22/11:30am 24.6 22.5 17.1 63 4.6 NE 24 30 13 16 1024.8 1024.7 0.2
22/11:00am 24.3 22.2 17.1 64 4.4 NE 24 30 13 16 1025.1 1025.0 0.2
22/10:30am 24.5 22.5 17.5 65 4.4 NNE 24 28 13 15 1025.5 1025.4 0.2
22/10:00am 24.3 22.7 17.5 66 4.2 NNE 22 30 12 16 1025.9 1025.8 0.2
22/09:30am 23.7 21.8 16.7 65 4.3 NNE 22 28 12 15 1025.9 1025.8 0.0
22/09:00am 23.0 21.5 16.8 68 3.8 NNE 20 26 11 14 1026.0 1025.9 0.4
22/08:30am 22.9 21.6 16.7 68 3.8 NNE 19 33 10 18 1026.0 1025.9 0.4
22/08:00am 21.5 22.2 17.9 80 2.2 WNW 11 17 6 9 1026.0 1025.9 0.4
22/07:30am 19.8 20.8 18.6 93 0.7 NW 11 13 6 7 1025.8 1025.7 0.4
22/07:00am 18.3 19.5 17.3 94 0.6 WNW 7 9 4 5 1025.7 1025.6 0.4
22/06:30am 17.9 19.1 17.3 96 0.4 WNW 7 9 4 5 1025.5 1025.4 0.4
22/06:00am 17.4 18.5 16.6 95 0.5 WNW 6 7 3 4 1025.1 1025.0 0.4
22/05:30am 17.0 17.7 16.2 95 0.5 WNW 7 9 4 5 1024.9 1024.8 0.0
22/05:00am 17.0 17.9 16.2 95 0.5 W 6 7 3 4 1024.6 1024.5 0.0
22/04:30am 17.0 17.9 16.2 95 0.5 WNW 6 7 3 4 1024.4 1024.3 0.0
22/04:00am 16.9 17.2 16.1 95 0.5 NW 9 15 5 8 1024.0 1023.9 0.0
22/03:46am 16.7 17.0 15.9 95 0.5 WNW 9 11 5 6 1023.9 1023.8 0.0
22/03:30am 17.0 17.8 16.4 96 0.4 WSW 7 9 4 5 1023.8 1023.7 0.0
22/03:00am 16.7 17.5 15.9 95 0.5 WSW 6 9 3 5 1023.8 1023.7 0.0
22/02:56am 16.6 17.2 15.8 95 0.5 WSW 7 9 4 5 1023.7 1023.6 0.0
22/02:46am 16.4 16.2 15.6 95 0.5 WSW 11 13 6 7 1023.8 1023.7 0.0
22/02:30am 16.4 16.8 15.4 94 0.6 W 7 11 4 6 1024.0 1023.9 0.0
22/02:06am 16.4 16.4 15.3 93 0.6 W 9 13 5 7 1024.1 1024.0 0.0
22/02:00am 16.4 16.4 15.3 93 0.6 W 9 11 5 6 1024.1 1024.0 0.0
22/01:30am 16.2 16.4 14.6 90 0.9 WNW 7 9 4 5 1024.3 1024.2 0.0
22/01:00am 17.2 17.8 15.7 91 0.9 WNW 7 9 4 5 1024.4 1024.3 0.0
22/12:30am 17.0 17.5 15.0 88 1.2 W 6 9 3 5 1024.6 1024.5 0.0
22/12:00am 17.7 17.9 14.6 82 1.8 NW 7 9 4 5 1024.5 1024.4 0.0
 
Date/Time
EST
Temp
°C
App
Temp
°C
Dew
Point
°C
Rel
Hum
%
Delta-T
°C
Wind Press
QNH
hPa
Press
MSL
hPa
Rain since
9am
mm
Dir  Spd
km/h
Gust
km/h
Spd
kts
Gust
kts
21/11:30pm 20.0 18.5 16.4 80 2.2 NNE 19 28 10 15 1024.4 1024.3 0.0
21/11:00pm 20.3 19.1 17.1 82 1.9 NNE 19 24 10 13 1024.6 1024.5 0.0
21/10:30pm 20.2 19.0 17.0 82 1.9 NNE 19 24 10 13 1024.7 1024.6 0.0
21/10:00pm 20.2 19.0 17.0 82 1.9 NNE 19 24 10 13 1024.7 1024.6 0.0
21/09:34pm 20.5 18.8 17.3 82 2.0 NNE 22 28 12 15 1024.6 1024.5 0.0
21/09:30pm 20.5 18.8 17.1 81 2.1 NNE 22 28 12 15 1024.6 1024.5 0.0
21/09:22pm 20.6 19.5 17.4 82 2.0 NNE 19 26 10 14 1024.6 1024.5 0.0
21/09:00pm 20.6 19.4 17.0 80 2.2 NNE 19 24 10 13 1024.5 1024.4 0.0
21/08:30pm 20.8 19.5 17.2 80 2.2 NNE 20 26 11 14 1024.6 1024.5 0.0
21/08:00pm 20.4 19.4 16.6 79 2.3 NE 17 22 9 12 1024.4 1024.3 0.0
21/07:30pm 20.4 19.0 16.6 79 2.3 NE 19 26 10 14 1024.0 1023.9 0.0
21/07:00pm 20.5 18.8 16.3 77 2.5 NE 20 26 11 14 1023.6 1023.5 0.0
21/06:30pm 20.6 18.3 15.8 74 2.9 NE 22 28 12 15 1023.3 1023.2 0.0
21/06:00pm 20.6 18.6 15.4 72 3.1 NE 20 26 11 14 1023.1 1023.0 0.0
21/05:30pm 20.7 18.7 15.5 72 3.1 NE 20 26 11 14 1023.2 1023.1 0.0
21/05:00pm 21.5 19.7 15.6 69 3.5 NE 19 24 10 13 1022.9 1022.8 0.0
21/04:30pm 22.3 20.2 16.1 68 3.7 NE 22 28 12 15 1022.7 1022.6 0.0
21/04:00pm 22.7 20.4 15.8 65 4.1 NE 22 28 12 15 1022.5 1022.4 0.0
21/03:30pm 23.3 21.1 15.9 63 4.5 NE 22 26 12 14 1022.7 1022.6 0.0
21/03:00pm 23.5 21.0 16.1 63 4.5 NE 24 28 13 15 1022.9 1022.8 0.0
21/02:30pm 23.8 21.7 16.1 62 4.7 NE 22 28 12 15 1023.1 1023.0 0.0
21/02:00pm 23.8 21.3 16.1 62 4.7 NE 24 28 13 15 1023.2 1023.1 0.0
21/01:30pm 24.0 21.6 15.5 59 5.1 NE 22 26 12 14 1023.5 1023.4 0.0
21/01:00pm 24.0 21.6 15.5 59 5.1 NE 22 28 12 15 1023.8 1023.7 0.0
21/12:30pm 24.5 22.4 16.2 60 5.1 NE 22 28 12 15 1024.1 1024.0 0.0
21/12:00pm 24.1 22.3 15.9 60 5.0 NE 20 26 11 14 1024.4 1024.3 0.0
21/11:30am 24.3 22.6 16.3 61 4.9 NE 20 26 11 14 1024.9 1024.8 0.0
21/11:00am 24.5 23.0 16.7 61 4.8 NE 20 26 11 14 1025.2 1025.1 0.0
21/10:30am 24.0 22.4 16.5 63 4.6 NE 20 24 11 13 1025.7 1025.6 0.0
21/10:00am 23.9 22.6 16.9 65 4.3 ENE 19 24 10 13 1025.8 1025.7 0.0
21/09:30am 23.8 23.0 17.1 66 4.1 ENE 17 20 9 11 1025.9 1025.8 0.0
21/09:00am 23.3 22.4 16.8 67 4.0 ENE 17 20 9 11 1026.0 1025.9 0.2
21/08:30am 23.3 21.9 16.6 66 4.1 ENE 19 22 10 12 1026.1 1026.0 0.2
21/08:00am 22.8 22.3 17.0 70 3.5 ENE 15 17 8 9 1025.9 1025.8 0.2
21/07:30am 21.7 22.0 17.1 75 2.8 NE 11 17 6 9 1025.8 1025.7 0.2
21/07:00am 19.3 20.6 17.1 87 1.3 WNW 6 7 3 4 1025.6 1025.5 0.2
21/06:30am 17.7 18.3 15.9 89 1.1 W 7 9 4 5 1025.3 1025.2 0.2
21/06:00am 17.0 17.0 14.3 84 1.5 SW 7 9 4 5 1025.1 1025.0 0.2
21/05:30am 19.4 19.0 16.1 81 2.0 ENE 13 19 7 10 1024.8 1024.7 0.2
21/05:00am 16.7 18.2 14.7 88 1.1 CALM 0 0 0 0 1024.5 1024.4 0.2
21/04:30am 17.2 16.9 14.5 84 1.6 WSW 9 11 5 6 1024.3 1024.2 0.2
21/04:00am 19.4 19.3 16.1 81 2.0 E 11 17 6 9 1023.9 1023.8 0.2
21/03:30am 17.1 17.5 13.8 81 1.9 N 4 13 2 7 1023.8 1023.7 0.2
21/03:00am 19.7 18.5 16.2 80 2.1 ENE 17 22 9 12 1023.9 1023.8 0.2
21/02:30am 19.8 18.2 16.1 79 2.2 ENE 19 22 10 12 1023.8 1023.7 0.2
21/02:00am 20.0 19.2 17.0 83 1.8 ENE 17 22 9 12 1023.9 1023.8 0.2
21/01:30am 19.9 18.7 16.2 79 2.2 ENE 17 20 9 11 1024.0 1023.9 0.2
21/01:00am 20.3 18.7 15.9 76 2.6 E 19 22 10 12 1024.1 1024.0 0.0
21/12:30am 20.3 19.4 15.9 76 2.6 E 15 20 8 11 1024.3 1024.2 0.0
21/12:00am 20.3 19.0 15.9 76 2.6 E 17 20 9 11 1024.3 1024.2 0.0
 
Date/Time
EST
Temp
°C
App
Temp
°C
Dew
Point
°C
Rel
Hum
%
Delta-T
°C
Wind Press
QNH
hPa
Press
MSL
hPa
Rain since
9am
mm
Dir  Spd
km/h
Gust
km/h
Spd
kts
Gust
kts
20/11:30pm 20.2 19.7 16.0 77 2.5 E 13 19 7 10 1024.4 1024.3 0.0
20/11:00pm 20.0 18.8 15.0 73 2.9 E 15 20 8 11 1024.6 1024.5 0.0
20/10:30pm 20.3 18.8 15.3 73 3.0 E 17 20 9 11 1024.7 1024.6 0.0
20/10:00pm 20.1 19.4 15.3 74 2.8 E 13 17 7 9 1024.8 1024.7 0.0
20/09:30pm 20.2 19.0 15.0 72 3.1 E 15 20 8 11 1024.9 1024.8 0.0
20/09:00pm 20.3 19.6 15.5 74 2.8 E 13 19 7 10 1025.0 1024.9 0.0
20/08:30pm 20.3 19.0 15.7 75 2.7 E 17 20 9 11 1024.9 1024.8 0.0
20/08:00pm 20.3 19.3 15.7 75 2.7 E 15 20 8 11 1024.7 1024.6 0.0
20/07:30pm 20.5 19.1 15.5 73 3.0 E 17 20 9 11 1024.5 1024.4 0.0
20/07:00pm 20.6 19.2 15.6 73 3.0 E 17 20 9 11 1023.9 1023.8 0.0
20/06:30pm 20.5 19.0 15.3 72 3.1 E 17 20 9 11 1023.5 1023.4 0.0
20/06:00pm 20.6 19.1 15.2 71 3.2 ESE 17 20 9 11 1023.5 1023.4 0.0
20/05:30pm 20.9 19.4 15.4 71 3.3 ESE 17 20 9 11 1023.2 1023.1 0.0
20/05:00pm 21.3 19.9 15.6 70 3.4 E 17 24 9 13 1022.8 1022.7 0.0
20/04:30pm 22.0 20.7 15.8 68 3.7 E 17 22 9 12 1022.6 1022.5 0.0
20/04:00pm 22.4 21.2 16.0 67 3.8 ESE 17 22 9 12 1022.5 1022.4 0.0
20/03:30pm 22.6 21.3 15.9 66 4.0 ESE 17 22 9 12 1022.5 1022.4 0.0

Latest Capital City Observations: Canberra | Sydney | Melbourne | Brisbane | Adelaide | Perth | Hobart | Darwin

Other formats

Comma delimited format used in spreadsheet applications
http://www.bom.gov.au/fwo/IDQ60901/IDQ60901.94569.axf

JavaScript Object Notation format (JSON) in row-major order
http://www.bom.gov.au/fwo/IDQ60901/IDQ60901.94569.json

Data quality

Most of these data are generated automatically and are frequently updated. Quality checks on data are not normally performed. It is possible for incorrect values to appear. Refer to information at About Latest Weather Observations and please check the disclaimer before using these data.